sensor_id;sensor_type;location;lat;lon;timestamp;temperature;humidity
20125;DHT22;10223;50.862;4.360;2024-03-17T00:01:02;9.90;99.90
20125;DHT22;10223;50.862;4.360;2024-03-17T00:03:28;9.80;99.90
20125;DHT22;10223;50.862;4.360;2024-03-17T00:05:58;9.80;99.90
20125;DHT22;10223;50.862;4.360;2024-03-17T00:08:24;9.80;99.90
20125;DHT22;10223;50.862;4.360;2024-03-17T00:10:51;9.90;99.90
20125;DHT22;10223;50.862;4.360;2024-03-17T00:13:17;9.80;99.90
20125;DHT22;10223;50.862;4.360;2024-03-17T00:15:44;9.90;99.90
20125;DHT22;10223;50.862;4.360;2024-03-17T00:18:10;9.90;99.90
20125;DHT22;10223;50.862;4.360;2024-03-17T00:20:37;9.90;99.90
20125;DHT22;10223;50.862;4.360;2024-03-17T00:23:05;10.00;99.90
20125;DHT22;10223;50.862;4.360;2024-03-17T00:25:34;10.00;99.90
20125;DHT22;10223;50.862;4.360;2024-03-17T00:28:01;9.90;99.90
20125;DHT22;10223;50.862;4.360;2024-03-17T00:30:28;9.90;99.90
20125;DHT22;10223;50.862;4.360;2024-03-17T00:32:54;9.90;99.90
20125;DHT22;10223;50.862;4.360;2024-03-17T00:35:21;10.00;99.90
20125;DHT22;10223;50.862;4.360;2024-03-17T00:37:47;10.00;99.90
20125;DHT22;10223;50.862;4.360;2024-03-17T00:40:16;10.00;99.90
20125;DHT22;10223;50.862;4.360;2024-03-17T00:42:42;9.90;99.90
20125;DHT22;10223;50.862;4.360;2024-03-17T00:45:10;9.90;99.90
20125;DHT22;10223;50.862;4.360;2024-03-17T00:47:37;9.90;99.90
20125;DHT22;10223;50.862;4.360;2024-03-17T00:50:05;9.90;99.90
20125;DHT22;10223;50.862;4.360;2024-03-17T00:52:32;9.80;99.90
20125;DHT22;10223;50.862;4.360;2024-03-17T00:54:59;9.90;99.90
20125;DHT22;10223;50.862;4.360;2024-03-17T00:57:26;9.90;99.90
20125;DHT22;10223;50.862;4.360;2024-03-17T00:59:53;10.00;99.90
20125;DHT22;10223;50.862;4.360;2024-03-17T01:02:19;10.10;99.90
20125;DHT22;10223;50.862;4.360;2024-03-17T01:04:47;10.00;99.90
20125;DHT22;10223;50.862;4.360;2024-03-17T01:07:13;9.90;99.90
20125;DHT22;10223;50.862;4.360;2024-03-17T01:09:40;9.80;99.90
20125;DHT22;10223;50.862;4.360;2024-03-17T01:12:06;9.90;99.90
20125;DHT22;10223;50.862;4.360;2024-03-17T01:14:34;10.10;99.90
20125;DHT22;10223;50.862;4.360;2024-03-17T01:17:01;10.30;99.90
20125;DHT22;10223;50.862;4.360;2024-03-17T01:19:30;10.10;99.90
20125;DHT22;10223;50.862;4.360;2024-03-17T01:21:56;10.00;99.90
20125;DHT22;10223;50.862;4.360;2024-03-17T01:24:24;10.00;99.90
20125;DHT22;10223;50.862;4.360;2024-03-17T01:26:50;10.00;99.90
20125;DHT22;10223;50.862;4.360;2024-03-17T01:29:18;10.00;99.90
20125;DHT22;10223;50.862;4.360;2024-03-17T01:31:46;10.00;99.90
20125;DHT22;10223;50.862;4.360;2024-03-17T01:34:12;10.00;99.90
20125;DHT22;10223;50.862;4.360;2024-03-17T01:36:38;10.10;99.90
20125;DHT22;10223;50.862;4.360;2024-03-17T01:39:05;10.00;99.90
20125;DHT22;10223;50.862;4.360;2024-03-17T01:41:31;10.20;99.90
20125;DHT22;10223;50.862;4.360;2024-03-17T01:43:58;10.30;99.90
20125;DHT22;10223;50.862;4.360;2024-03-17T01:46:24;10.40;99.90
20125;DHT22;10223;50.862;4.360;2024-03-17T01:48:53;10.50;99.90
20125;DHT22;10223;50.862;4.360;2024-03-17T01:51:19;10.50;99.90
20125;DHT22;10223;50.862;4.360;2024-03-17T01:53:46;10.30;99.90
20125;DHT22;10223;50.862;4.360;2024-03-17T01:56:14;10.30;99.90
20125;DHT22;10223;50.862;4.360;2024-03-17T01:58:43;10.30;99.90
20125;DHT22;10223;50.862;4.360;2024-03-17T02:01:10;10.20;99.90
20125;DHT22;10223;50.862;4.360;2024-03-17T02:03:40;10.20;99.90
20125;DHT22;10223;50.862;4.360;2024-03-17T02:06:07;10.30;99.90
20125;DHT22;10223;50.862;4.360;2024-03-17T02:08:46;10.20;99.90
20125;DHT22;10223;50.862;4.360;2024-03-17T02:11:24;10.10;99.90
20125;DHT22;10223;50.862;4.360;2024-03-17T02:13:52;10.10;99.90
20125;DHT22;10223;50.862;4.360;2024-03-17T02:16:18;10.20;99.90
20125;DHT22;10223;50.862;4.360;2024-03-17T02:18:45;10.30;99.90
20125;DHT22;10223;50.862;4.360;2024-03-17T02:21:13;10.20;99.90
20125;DHT22;10223;50.862;4.360;2024-03-17T02:23:43;10.20;99.90
20125;DHT22;10223;50.862;4.360;2024-03-17T02:26:09;10.10;99.90
20125;DHT22;10223;50.862;4.360;2024-03-17T02:28:40;10.10;99.90
20125;DHT22;10223;50.862;4.360;2024-03-17T02:31:07;10.10;99.90
20125;DHT22;10223;50.862;4.360;2024-03-17T02:33:35;10.30;99.90
20125;DHT22;10223;50.862;4.360;2024-03-17T02:36:02;10.30;99.90
20125;DHT22;10223;50.862;4.360;2024-03-17T02:38:33;10.10;99.90
20125;DHT22;10223;50.862;4.360;2024-03-17T02:41:19;10.10;99.90
20125;DHT22;10223;50.862;4.360;2024-03-17T02:43:46;10.30;99.90
20125;DHT22;10223;50.862;4.360;2024-03-17T02:46:14;10.30;99.90
20125;DHT22;10223;50.862;4.360;2024-03-17T02:48:41;10.30;99.90
20125;DHT22;10223;50.862;4.360;2024-03-17T02:51:11;10.20;99.90
20125;DHT22;10223;50.862;4.360;2024-03-17T02:53:40;10.30;99.90
20125;DHT22;10223;50.862;4.360;2024-03-17T02:56:07;10.20;99.90
20125;DHT22;10223;50.862;4.360;2024-03-17T02:58:36;10.20;99.90
20125;DHT22;10223;50.862;4.360;2024-03-17T03:01:03;10.20;99.90
20125;DHT22;10223;50.862;4.360;2024-03-17T03:03:31;10.20;99.90
20125;DHT22;10223;50.862;4.360;2024-03-17T03:05:58;10.30;99.90
20125;DHT22;10223;50.862;4.360;2024-03-17T03:08:26;10.20;99.90
20125;DHT22;10223;50.862;4.360;2024-03-17T03:10:53;10.20;99.90
20125;DHT22;10223;50.862;4.360;2024-03-17T03:13:20;10.30;99.90
20125;DHT22;10223;50.862;4.360;2024-03-17T03:15:49;10.20;99.90
20125;DHT22;10223;50.862;4.360;2024-03-17T03:18:16;10.10;99.90
20125;DHT22;10223;50.862;4.360;2024-03-17T03:20:43;10.20;99.90
20125;DHT22;10223;50.862;4.360;2024-03-17T03:23:10;10.10;99.90
20125;DHT22;10223;50.862;4.360;2024-03-17T03:25:37;10.10;99.90
20125;DHT22;10223;50.862;4.360;2024-03-17T03:28:04;10.10;99.90
20125;DHT22;10223;50.862;4.360;2024-03-17T03:30:35;10.10;99.90
20125;DHT22;10223;50.862;4.360;2024-03-17T03:33:03;10.10;99.90
20125;DHT22;10223;50.862;4.360;2024-03-17T03:35:31;10.10;99.90
20125;DHT22;10223;50.862;4.360;2024-03-17T03:37:58;10.20;99.90
20125;DHT22;10223;50.862;4.360;2024-03-17T03:40:26;10.10;99.90
20125;DHT22;10223;50.862;4.360;2024-03-17T03:42:53;10.10;99.90
20125;DHT22;10223;50.862;4.360;2024-03-17T03:45:20;10.00;99.90
20125;DHT22;10223;50.862;4.360;2024-03-17T03:47:47;9.90;99.90
20125;DHT22;10223;50.862;4.360;2024-03-17T03:50:20;10.00;99.90
20125;DHT22;10223;50.862;4.360;2024-03-17T03:52:47;10.00;99.90
20125;DHT22;10223;50.862;4.360;2024-03-17T03:55:16;10.00;99.90
20125;DHT22;10223;50.862;4.360;2024-03-17T03:57:43;9.90;99.90
20125;DHT22;10223;50.862;4.360;2024-03-17T04:00:12;9.90;99.90
20125;DHT22;10223;50.862;4.360;2024-03-17T04:02:40;10.00;99.90
20125;DHT22;10223;50.862;4.360;2024-03-17T04:05:10;10.00;99.90
20125;DHT22;10223;50.862;4.360;2024-03-17T04:07:39;10.00;99.90
20125;DHT22;10223;50.862;4.360;2024-03-17T04:10:06;9.90;99.90
20125;DHT22;10223;50.862;4.360;2024-03-17T04:12:33;9.90;99.90
20125;DHT22;10223;50.862;4.360;2024-03-17T04:15:00;9.90;99.90
20125;DHT22;10223;50.862;4.360;2024-03-17T04:17:28;9.90;99.90
20125;DHT22;10223;50.862;4.360;2024-03-17T04:19:55;9.80;99.90
20125;DHT22;10223;50.862;4.360;2024-03-17T04:22:22;9.80;99.90
20125;DHT22;10223;50.862;4.360;2024-03-17T04:24:51;9.90;99.90
20125;DHT22;10223;50.862;4.360;2024-03-17T04:27:19;9.80;99.90
20125;DHT22;10223;50.862;4.360;2024-03-17T04:29:47;9.80;99.90
20125;DHT22;10223;50.862;4.360;2024-03-17T04:32:14;9.80;99.90
20125;DHT22;10223;50.862;4.360;2024-03-17T04:34:41;9.90;99.90
20125;DHT22;10223;50.862;4.360;2024-03-17T04:37:09;9.80;99.90
20125;DHT22;10223;50.862;4.360;2024-03-17T04:39:37;9.80;99.90
20125;DHT22;10223;50.862;4.360;2024-03-17T04:42:06;9.70;99.90
20125;DHT22;10223;50.862;4.360;2024-03-17T04:44:33;9.70;99.90
20125;DHT22;10223;50.862;4.360;2024-03-17T04:47:00;9.70;99.90
20125;DHT22;10223;50.862;4.360;2024-03-17T04:49:28;9.70;99.90
20125;DHT22;10223;50.862;4.360;2024-03-17T04:51:54;9.70;99.90
20125;DHT22;10223;50.862;4.360;2024-03-17T04:54:21;9.70;99.90
20125;DHT22;10223;50.862;4.360;2024-03-17T04:56:48;9.80;99.90
20125;DHT22;10223;50.862;4.360;2024-03-17T04:59:17;9.70;99.90
20125;DHT22;10223;50.862;4.360;2024-03-17T05:01:43;9.60;99.90
20125;DHT22;10223;50.862;4.360;2024-03-17T05:04:10;9.70;99.90
20125;DHT22;10223;50.862;4.360;2024-03-17T05:06:37;9.70;99.90
20125;DHT22;10223;50.862;4.360;2024-03-17T05:09:07;9.70;99.90
20125;DHT22;10223;50.862;4.360;2024-03-17T05:11:34;9.70;99.90
20125;DHT22;10223;50.862;4.360;2024-03-17T05:14:03;9.70;99.90
20125;DHT22;10223;50.862;4.360;2024-03-17T05:16:31;9.60;99.90
20125;DHT22;10223;50.862;4.360;2024-03-17T05:18:58;9.70;99.90
20125;DHT22;10223;50.862;4.360;2024-03-17T05:21:25;9.70;99.90
20125;DHT22;10223;50.862;4.360;2024-03-17T05:23:55;9.70;99.90
20125;DHT22;10223;50.862;4.360;2024-03-17T05:26:23;9.70;99.90
20125;DHT22;10223;50.862;4.360;2024-03-17T05:28:50;9.70;99.90
20125;DHT22;10223;50.862;4.360;2024-03-17T05:31:17;9.70;99.90
20125;DHT22;10223;50.862;4.360;2024-03-17T05:33:47;9.80;99.90
20125;DHT22;10223;50.862;4.360;2024-03-17T05:36:14;9.70;99.90
20125;DHT22;10223;50.862;4.360;2024-03-17T05:38:45;9.70;99.90
20125;DHT22;10223;50.862;4.360;2024-03-17T05:41:12;9.80;99.90
20125;DHT22;10223;50.862;4.360;2024-03-17T05:43:40;9.80;99.90
20125;DHT22;10223;50.862;4.360;2024-03-17T05:46:09;9.90;99.90
20125;DHT22;10223;50.862;4.360;2024-03-17T05:48:37;9.90;99.90
20125;DHT22;10223;50.862;4.360;2024-03-17T05:51:07;9.90;99.90
20125;DHT22;10223;50.862;4.360;2024-03-17T05:53:34;9.90;99.90
20125;DHT22;10223;50.862;4.360;2024-03-17T05:56:03;9.90;99.90
20125;DHT22;10223;50.862;4.360;2024-03-17T05:58:30;9.90;99.90
20125;DHT22;10223;50.862;4.360;2024-03-17T06:00:57;9.90;99.90
20125;DHT22;10223;50.862;4.360;2024-03-17T06:03:24;9.90;99.90
20125;DHT22;10223;50.862;4.360;2024-03-17T06:05:51;9.90;99.90
20125;DHT22;10223;50.862;4.360;2024-03-17T06:08:20;9.90;99.90
20125;DHT22;10223;50.862;4.360;2024-03-17T06:10:48;10.00;99.90
20125;DHT22;10223;50.862;4.360;2024-03-17T06:13:15;10.00;99.90
20125;DHT22;10223;50.862;4.360;2024-03-17T06:15:43;10.00;99.90
20125;DHT22;10223;50.862;4.360;2024-03-17T06:18:13;10.00;99.90
20125;DHT22;10223;50.862;4.360;2024-03-17T06:20:43;10.00;99.90
20125;DHT22;10223;50.862;4.360;2024-03-17T06:23:10;10.00;99.90
20125;DHT22;10223;50.862;4.360;2024-03-17T06:25:40;10.10;99.90
20125;DHT22;10223;50.862;4.360;2024-03-17T06:28:07;10.10;99.90
20125;DHT22;10223;50.862;4.360;2024-03-17T06:30:35;10.10;99.90
20125;DHT22;10223;50.862;4.360;2024-03-17T06:33:03;10.20;99.90
20125;DHT22;10223;50.862;4.360;2024-03-17T06:35:31;10.20;99.90
20125;DHT22;10223;50.862;4.360;2024-03-17T06:37:59;10.30;99.90
20125;DHT22;10223;50.862;4.360;2024-03-17T06:40:27;10.30;99.90
20125;DHT22;10223;50.862;4.360;2024-03-17T06:42:56;10.40;99.90
20125;DHT22;10223;50.862;4.360;2024-03-17T06:45:23;10.50;99.90
20125;DHT22;10223;50.862;4.360;2024-03-17T06:47:50;10.50;99.90
20125;DHT22;10223;50.862;4.360;2024-03-17T06:50:17;10.50;99.90
20125;DHT22;10223;50.862;4.360;2024-03-17T06:52:44;10.60;99.90
20125;DHT22;10223;50.862;4.360;2024-03-17T06:55:11;10.60;99.90
20125;DHT22;10223;50.862;4.360;2024-03-17T06:57:41;10.50;99.90
20125;DHT22;10223;50.862;4.360;2024-03-17T07:00:11;10.50;99.90
20125;DHT22;10223;50.862;4.360;2024-03-17T07:02:40;10.40;99.90
20125;DHT22;10223;50.862;4.360;2024-03-17T07:05:12;10.40;99.90
20125;DHT22;10223;50.862;4.360;2024-03-17T07:07:41;10.50;99.90
20125;DHT22;10223;50.862;4.360;2024-03-17T07:10:08;10.50;99.90
20125;DHT22;10223;50.862;4.360;2024-03-17T07:12:37;10.50;99.90
20125;DHT22;10223;50.862;4.360;2024-03-17T07:15:05;10.60;99.90
20125;DHT22;10223;50.862;4.360;2024-03-17T07:17:33;10.60;99.90
20125;DHT22;10223;50.862;4.360;2024-03-17T07:20:00;10.50;99.90
20125;DHT22;10223;50.862;4.360;2024-03-17T07:22:28;10.50;99.90
20125;DHT22;10223;50.862;4.360;2024-03-17T07:24:56;10.60;99.90
20125;DHT22;10223;50.862;4.360;2024-03-17T07:27:26;10.60;99.90
20125;DHT22;10223;50.862;4.360;2024-03-17T07:29:53;10.50;99.90
20125;DHT22;10223;50.862;4.360;2024-03-17T07:32:20;10.60;99.90
20125;DHT22;10223;50.862;4.360;2024-03-17T07:34:50;10.60;99.90
20125;DHT22;10223;50.862;4.360;2024-03-17T07:37:16;10.70;99.90
20125;DHT22;10223;50.862;4.360;2024-03-17T07:39:44;10.70;99.90
20125;DHT22;10223;50.862;4.360;2024-03-17T07:42:13;10.70;99.90
20125;DHT22;10223;50.862;4.360;2024-03-17T07:44:43;10.80;99.90
20125;DHT22;10223;50.862;4.360;2024-03-17T07:47:10;10.80;99.90
20125;DHT22;10223;50.862;4.360;2024-03-17T07:49:37;10.80;99.90
20125;DHT22;10223;50.862;4.360;2024-03-17T07:52:06;10.80;99.90
20125;DHT22;10223;50.862;4.360;2024-03-17T07:54:32;10.80;99.90
20125;DHT22;10223;50.862;4.360;2024-03-17T07:57:01;10.90;99.90
20125;DHT22;10223;50.862;4.360;2024-03-17T07:59:28;10.90;99.90
20125;DHT22;10223;50.862;4.360;2024-03-17T08:01:56;10.80;99.90
20125;DHT22;10223;50.862;4.360;2024-03-17T08:04:23;10.80;99.90
20125;DHT22;10223;50.862;4.360;2024-03-17T08:06:50;10.90;99.90
20125;DHT22;10223;50.862;4.360;2024-03-17T08:09:18;11.00;99.90
20125;DHT22;10223;50.862;4.360;2024-03-17T08:11:45;11.10;99.90
20125;DHT22;10223;50.862;4.360;2024-03-17T08:14:13;11.20;99.90
20125;DHT22;10223;50.862;4.360;2024-03-17T08:16:41;11.30;99.90
20125;DHT22;10223;50.862;4.360;2024-03-17T08:19:08;11.40;99.90
20125;DHT22;10223;50.862;4.360;2024-03-17T08:21:35;11.30;99.90
20125;DHT22;10223;50.862;4.360;2024-03-17T08:24:02;11.20;99.90
20125;DHT22;10223;50.862;4.360;2024-03-17T08:26:31;11.40;99.90
20125;DHT22;10223;50.862;4.360;2024-03-17T08:28:57;11.50;99.90
20125;DHT22;10223;50.862;4.360;2024-03-17T08:31:24;11.50;99.90
20125;DHT22;10223;50.862;4.360;2024-03-17T08:33:51;11.50;99.90
20125;DHT22;10223;50.862;4.360;2024-03-17T08:36:18;11.40;99.90
20125;DHT22;10223;50.862;4.360;2024-03-17T08:38:46;11.50;99.90
20125;DHT22;10223;50.862;4.360;2024-03-17T08:41:14;11.50;99.90
20125;DHT22;10223;50.862;4.360;2024-03-17T08:43:43;11.40;99.90
20125;DHT22;10223;50.862;4.360;2024-03-17T08:46:11;11.40;99.90
20125;DHT22;10223;50.862;4.360;2024-03-17T08:48:40;11.40;99.90
20125;DHT22;10223;50.862;4.360;2024-03-17T08:51:08;11.50;99.90
20125;DHT22;10223;50.862;4.360;2024-03-17T08:53:35;11.40;99.90
20125;DHT22;10223;50.862;4.360;2024-03-17T08:56:04;11.30;99.90
20125;DHT22;10223;50.862;4.360;2024-03-17T08:58:32;11.40;99.90
20125;DHT22;10223;50.862;4.360;2024-03-17T09:01:03;11.60;99.90
20125;DHT22;10223;50.862;4.360;2024-03-17T09:03:30;11.60;99.90
20125;DHT22;10223;50.862;4.360;2024-03-17T09:05:57;11.80;99.90
20125;DHT22;10223;50.862;4.360;2024-03-17T09:08:24;11.80;99.90
20125;DHT22;10223;50.862;4.360;2024-03-17T09:10:53;11.80;99.90
20125;DHT22;10223;50.862;4.360;2024-03-17T09:13:21;11.80;99.90
20125;DHT22;10223;50.862;4.360;2024-03-17T09:15:53;11.80;99.90
20125;DHT22;10223;50.862;4.360;2024-03-17T09:18:21;11.80;99.90
20125;DHT22;10223;50.862;4.360;2024-03-17T09:20:56;11.90;99.90
20125;DHT22;10223;50.862;4.360;2024-03-17T09:23:23;11.90;99.90
20125;DHT22;10223;50.862;4.360;2024-03-17T09:25:57;11.90;99.90
20125;DHT22;10223;50.862;4.360;2024-03-17T09:28:25;11.90;99.90
20125;DHT22;10223;50.862;4.360;2024-03-17T09:30:54;11.80;99.90
20125;DHT22;10223;50.862;4.360;2024-03-17T09:33:23;11.80;99.90
20125;DHT22;10223;50.862;4.360;2024-03-17T09:35:54;11.80;99.90
20125;DHT22;10223;50.862;4.360;2024-03-17T09:38:21;11.80;99.90
20125;DHT22;10223;50.862;4.360;2024-03-17T09:40:48;11.80;99.90
20125;DHT22;10223;50.862;4.360;2024-03-17T09:43:18;11.90;99.90
20125;DHT22;10223;50.862;4.360;2024-03-17T09:45:45;11.90;99.90
20125;DHT22;10223;50.862;4.360;2024-03-17T09:48:14;12.00;99.90
20125;DHT22;10223;50.862;4.360;2024-03-17T09:50:50;11.90;99.90
20125;DHT22;10223;50.862;4.360;2024-03-17T09:53:23;11.90;99.90
20125;DHT22;10223;50.862;4.360;2024-03-17T09:55:50;11.80;99.90
20125;DHT22;10223;50.862;4.360;2024-03-17T09:58:19;12.00;99.90
20125;DHT22;10223;50.862;4.360;2024-03-17T10:00:46;11.90;99.90
20125;DHT22;10223;50.862;4.360;2024-03-17T10:03:39;11.90;99.90
20125;DHT22;10223;50.862;4.360;2024-03-17T10:06:08;12.00;99.90
20125;DHT22;10223;50.862;4.360;2024-03-17T10:08:44;12.00;99.90
20125;DHT22;10223;50.862;4.360;2024-03-17T10:11:12;12.10;99.90
20125;DHT22;10223;50.862;4.360;2024-03-17T10:13:39;12.00;99.90
20125;DHT22;10223;50.862;4.360;2024-03-17T10:16:06;12.00;99.90
20125;DHT22;10223;50.862;4.360;2024-03-17T10:18:33;12.10;99.90
20125;DHT22;10223;50.862;4.360;2024-03-17T10:21:00;12.10;99.90
20125;DHT22;10223;50.862;4.360;2024-03-17T10:23:28;12.00;99.90
20125;DHT22;10223;50.862;4.360;2024-03-17T10:25:55;12.10;99.90
20125;DHT22;10223;50.862;4.360;2024-03-17T10:28:22;12.20;99.90
20125;DHT22;10223;50.862;4.360;2024-03-17T10:30:59;12.10;99.90
20125;DHT22;10223;50.862;4.360;2024-03-17T10:33:27;12.10;99.90
20125;DHT22;10223;50.862;4.360;2024-03-17T10:36:00;12.10;99.90
20125;DHT22;10223;50.862;4.360;2024-03-17T10:38:29;12.10;99.90
20125;DHT22;10223;50.862;4.360;2024-03-17T10:40:56;12.20;99.90
20125;DHT22;10223;50.862;4.360;2024-03-17T10:43:23;12.30;99.90
20125;DHT22;10223;50.862;4.360;2024-03-17T10:45:54;12.30;99.90
20125;DHT22;10223;50.862;4.360;2024-03-17T10:48:26;12.30;99.90
20125;DHT22;10223;50.862;4.360;2024-03-17T10:50:59;12.30;99.90
20125;DHT22;10223;50.862;4.360;2024-03-17T10:53:32;12.40;99.90
20125;DHT22;10223;50.862;4.360;2024-03-17T10:56:04;12.50;99.90
20125;DHT22;10223;50.862;4.360;2024-03-17T10:58:35;12.50;99.90
20125;DHT22;10223;50.862;4.360;2024-03-17T11:01:03;12.60;99.90
20125;DHT22;10223;50.862;4.360;2024-03-17T11:03:33;12.60;99.90
20125;DHT22;10223;50.862;4.360;2024-03-17T11:06:03;12.60;99.90
20125;DHT22;10223;50.862;4.360;2024-03-17T11:08:33;12.70;99.90
20125;DHT22;10223;50.862;4.360;2024-03-17T11:11:00;12.70;99.90
20125;DHT22;10223;50.862;4.360;2024-03-17T11:13:30;12.80;99.90
20125;DHT22;10223;50.862;4.360;2024-03-17T11:15:58;12.90;99.90
20125;DHT22;10223;50.862;4.360;2024-03-17T11:18:34;13.10;99.90
20125;DHT22;10223;50.862;4.360;2024-03-17T11:21:02;13.20;99.90
20125;DHT22;10223;50.862;4.360;2024-03-17T11:23:35;13.20;99.90
20125;DHT22;10223;50.862;4.360;2024-03-17T11:26:04;13.50;99.90
20125;DHT22;10223;50.862;4.360;2024-03-17T11:28:51;13.80;99.90
20125;DHT22;10223;50.862;4.360;2024-03-17T11:31:43;13.80;99.90
20125;DHT22;10223;50.862;4.360;2024-03-17T11:34:35;13.80;99.90
20125;DHT22;10223;50.862;4.360;2024-03-17T11:37:03;14.00;99.90
20125;DHT22;10223;50.862;4.360;2024-03-17T11:39:52;14.00;99.90
20125;DHT22;10223;50.862;4.360;2024-03-17T11:42:30;14.10;99.90
20125;DHT22;10223;50.862;4.360;2024-03-17T11:44:58;14.20;99.90
20125;DHT22;10223;50.862;4.360;2024-03-17T11:47:34;14.10;99.90
20125;DHT22;10223;50.862;4.360;2024-03-17T11:50:05;14.20;99.90
20125;DHT22;10223;50.862;4.360;2024-03-17T11:52:33;14.50;99.90
20125;DHT22;10223;50.862;4.360;2024-03-17T11:55:00;14.70;99.90
20125;DHT22;10223;50.862;4.360;2024-03-17T11:57:27;14.90;99.90
20125;DHT22;10223;50.862;4.360;2024-03-17T11:59:55;14.70;99.90
20125;DHT22;10223;50.862;4.360;2024-03-17T12:02:23;14.60;99.90
20125;DHT22;10223;50.862;4.360;2024-03-17T12:04:57;14.30;99.90
20125;DHT22;10223;50.862;4.360;2024-03-17T12:07:24;14.40;99.90
20125;DHT22;10223;50.862;4.360;2024-03-17T12:09:51;14.60;99.90
20125;DHT22;10223;50.862;4.360;2024-03-17T12:12:22;14.70;99.90
20125;DHT22;10223;50.862;4.360;2024-03-17T12:14:49;14.70;99.90
20125;DHT22;10223;50.862;4.360;2024-03-17T12:17:21;14.90;99.90
20125;DHT22;10223;50.862;4.360;2024-03-17T12:19:47;15.00;99.90
20125;DHT22;10223;50.862;4.360;2024-03-17T12:22:17;14.80;99.90
20125;DHT22;10223;50.862;4.360;2024-03-17T12:24:48;14.80;99.90
20125;DHT22;10223;50.862;4.360;2024-03-17T12:27:22;15.10;99.90
20125;DHT22;10223;50.862;4.360;2024-03-17T12:29:49;15.10;99.90
20125;DHT22;10223;50.862;4.360;2024-03-17T12:32:18;15.10;99.90
20125;DHT22;10223;50.862;4.360;2024-03-17T12:34:45;15.10;99.90
20125;DHT22;10223;50.862;4.360;2024-03-17T12:37:17;15.10;99.90
20125;DHT22;10223;50.862;4.360;2024-03-17T12:39:43;15.20;99.90
20125;DHT22;10223;50.862;4.360;2024-03-17T12:42:11;15.20;99.90
20125;DHT22;10223;50.862;4.360;2024-03-17T12:44:46;15.20;99.90
20125;DHT22;10223;50.862;4.360;2024-03-17T12:47:16;15.10;99.90
20125;DHT22;10223;50.862;4.360;2024-03-17T12:49:45;15.10;99.90
20125;DHT22;10223;50.862;4.360;2024-03-17T12:52:17;15.30;99.90
20125;DHT22;10223;50.862;4.360;2024-03-17T12:54:44;15.10;99.90
20125;DHT22;10223;50.862;4.360;2024-03-17T12:57:20;15.00;99.90
20125;DHT22;10223;50.862;4.360;2024-03-17T13:00:16;15.10;99.90
20125;DHT22;10223;50.862;4.360;2024-03-17T13:02:59;15.10;99.90
20125;DHT22;10223;50.862;4.360;2024-03-17T13:05:26;15.10;99.90
20125;DHT22;10223;50.862;4.360;2024-03-17T13:07:54;15.20;99.90
20125;DHT22;10223;50.862;4.360;2024-03-17T13:10:22;15.10;99.90
20125;DHT22;10223;50.862;4.360;2024-03-17T13:12:58;15.00;99.90
20125;DHT22;10223;50.862;4.360;2024-03-17T13:15:28;15.00;99.90
20125;DHT22;10223;50.862;4.360;2024-03-17T13:17:57;14.90;99.90
20125;DHT22;10223;50.862;4.360;2024-03-17T13:20:24;14.80;99.90
20125;DHT22;10223;50.862;4.360;2024-03-17T13:22:52;14.70;99.90
20125;DHT22;10223;50.862;4.360;2024-03-17T13:25:20;14.70;99.90
20125;DHT22;10223;50.862;4.360;2024-03-17T13:27:49;14.50;99.90
20125;DHT22;10223;50.862;4.360;2024-03-17T13:30:17;14.40;99.90
20125;DHT22;10223;50.862;4.360;2024-03-17T13:32:46;14.40;99.90
20125;DHT22;10223;50.862;4.360;2024-03-17T13:35:15;14.40;99.90
20125;DHT22;10223;50.862;4.360;2024-03-17T13:37:43;14.50;99.90
20125;DHT22;10223;50.862;4.360;2024-03-17T13:40:11;14.40;99.90
20125;DHT22;10223;50.862;4.360;2024-03-17T13:42:45;14.40;99.90
20125;DHT22;10223;50.862;4.360;2024-03-17T13:45:13;14.50;99.90
20125;DHT22;10223;50.862;4.360;2024-03-17T13:47:41;14.50;99.90
20125;DHT22;10223;50.862;4.360;2024-03-17T13:50:10;14.50;99.90
20125;DHT22;10223;50.862;4.360;2024-03-17T13:52:42;14.70;99.90
20125;DHT22;10223;50.862;4.360;2024-03-17T13:55:13;14.70;99.90
20125;DHT22;10223;50.862;4.360;2024-03-17T13:57:41;14.70;99.90
20125;DHT22;10223;50.862;4.360;2024-03-17T14:00:09;14.70;99.90
20125;DHT22;10223;50.862;4.360;2024-03-17T14:02:41;14.70;99.90
20125;DHT22;10223;50.862;4.360;2024-03-17T14:05:12;14.60;99.90
20125;DHT22;10223;50.862;4.360;2024-03-17T14:07:40;14.50;99.90
20125;DHT22;10223;50.862;4.360;2024-03-17T14:10:08;14.50;99.90
20125;DHT22;10223;50.862;4.360;2024-03-17T14:12:35;14.40;99.90
20125;DHT22;10223;50.862;4.360;2024-03-17T14:15:04;14.50;99.90
20125;DHT22;10223;50.862;4.360;2024-03-17T14:17:32;14.40;99.90
20125;DHT22;10223;50.862;4.360;2024-03-17T14:19:59;14.30;99.90
20125;DHT22;10223;50.862;4.360;2024-03-17T14:22:27;14.30;99.90
20125;DHT22;10223;50.862;4.360;2024-03-17T14:24:54;14.30;99.90
20125;DHT22;10223;50.862;4.360;2024-03-17T14:27:21;14.20;99.90
20125;DHT22;10223;50.862;4.360;2024-03-17T14:29:49;14.20;99.90
20125;DHT22;10223;50.862;4.360;2024-03-17T14:32:16;14.20;99.90
20125;DHT22;10223;50.862;4.360;2024-03-17T14:34:43;14.10;99.90
20125;DHT22;10223;50.862;4.360;2024-03-17T14:37:10;14.20;99.90
20125;DHT22;10223;50.862;4.360;2024-03-17T14:39:39;14.10;99.90
20125;DHT22;10223;50.862;4.360;2024-03-17T14:42:06;14.10;99.90
20125;DHT22;10223;50.862;4.360;2024-03-17T14:44:34;14.10;99.90
20125;DHT22;10223;50.862;4.360;2024-03-17T14:47:02;14.00;99.90
20125;DHT22;10223;50.862;4.360;2024-03-17T14:49:30;14.10;99.90
20125;DHT22;10223;50.862;4.360;2024-03-17T14:51:56;14.10;99.90
20125;DHT22;10223;50.862;4.360;2024-03-17T14:54:23;14.10;99.90
20125;DHT22;10223;50.862;4.360;2024-03-17T14:56:52;14.20;99.90
20125;DHT22;10223;50.862;4.360;2024-03-17T14:59:20;14.10;99.90
20125;DHT22;10223;50.862;4.360;2024-03-17T15:01:47;14.20;99.90
20125;DHT22;10223;50.862;4.360;2024-03-17T15:04:14;14.20;99.90
20125;DHT22;10223;50.862;4.360;2024-03-17T15:06:41;14.20;99.90
20125;DHT22;10223;50.862;4.360;2024-03-17T15:09:08;14.00;99.90
20125;DHT22;10223;50.862;4.360;2024-03-17T15:11:35;14.00;99.90
20125;DHT22;10223;50.862;4.360;2024-03-17T15:14:04;14.00;99.90
20125;DHT22;10223;50.862;4.360;2024-03-17T15:16:36;13.90;99.90
20125;DHT22;10223;50.862;4.360;2024-03-17T15:19:04;13.90;99.90
20125;DHT22;10223;50.862;4.360;2024-03-17T15:21:32;13.80;99.90
20125;DHT22;10223;50.862;4.360;2024-03-17T15:24:00;13.90;99.90
20125;DHT22;10223;50.862;4.360;2024-03-17T15:26:28;13.90;99.90
20125;DHT22;10223;50.862;4.360;2024-03-17T15:28:56;13.90;99.90
20125;DHT22;10223;50.862;4.360;2024-03-17T15:31:30;13.90;99.90
20125;DHT22;10223;50.862;4.360;2024-03-17T15:33:57;13.80;99.90
20125;DHT22;10223;50.862;4.360;2024-03-17T15:36:24;13.80;99.90
20125;DHT22;10223;50.862;4.360;2024-03-17T15:38:54;13.80;99.90
20125;DHT22;10223;50.862;4.360;2024-03-17T15:41:20;13.80;99.90
20125;DHT22;10223;50.862;4.360;2024-03-17T15:43:47;13.80;99.90